createdAt,value
2018-12-07T16:37:48.645Z,94.40
2018-12-07T16:40:16.393Z,94.60
2018-12-07T16:42:44.124Z,94.20
2018-12-07T16:45:11.834Z,94.20
2018-12-07T16:47:39.885Z,94.60
2018-12-07T16:50:07.685Z,94.70
2018-12-07T16:52:35.447Z,94.50
2018-12-07T16:55:03.440Z,94.60
2018-12-07T16:57:31.377Z,94.00
2018-12-07T16:59:59.430Z,94.10
2018-12-07T17:02:27.120Z,94.40
2018-12-07T17:04:54.929Z,94.60
2018-12-07T17:07:22.766Z,94.40
2018-12-07T17:09:50.503Z,94.10
2018-12-07T17:12:19.043Z,93.60
2018-12-07T17:14:47.225Z,93.30
2018-12-07T17:17:14.928Z,93.50
2018-12-07T17:19:42.950Z,93.30
2018-12-07T17:22:11.176Z,93.50
2018-12-07T17:24:38.971Z,93.60
2018-12-07T17:27:06.626Z,93.90
2018-12-07T17:29:37.642Z,94.20
2018-12-07T17:32:05.469Z,94.30
2018-12-07T17:34:33.597Z,94.60
2018-12-07T17:37:01.510Z,94.60
2018-12-07T17:39:29.384Z,93.80
2018-12-07T17:41:57.349Z,92.90
2018-12-07T17:44:25.193Z,93.20
2018-12-07T17:46:52.948Z,92.70
2018-12-07T17:49:20.822Z,92.80
2018-12-07T17:51:48.805Z,92.70
2018-12-07T17:54:16.686Z,92.70
2018-12-07T17:56:44.497Z,92.90
2018-12-07T17:59:13.356Z,92.90
2018-12-07T18:01:41.206Z,92.90
2018-12-07T18:04:08.844Z,92.70
2018-12-07T18:06:36.564Z,92.20
2018-12-07T18:09:07.460Z,92.10
2018-12-07T18:11:35.924Z,92.40
2018-12-07T18:14:03.628Z,92.10
2018-12-07T18:16:31.402Z,92.00
2018-12-07T18:18:59.386Z,92.00
2018-12-07T18:21:27.371Z,92.30
2018-12-07T18:23:55.120Z,92.50
2018-12-07T18:26:23.078Z,92.90
2018-12-07T18:28:50.753Z,93.00
2018-12-07T18:31:18.712Z,93.20
2018-12-07T18:33:46.749Z,93.30
2018-12-07T18:36:14.707Z,92.90
2018-12-07T18:38:42.620Z,92.70
2018-12-07T18:41:10.501Z,92.50
2018-12-07T18:43:38.517Z,92.70
2018-12-07T18:46:06.668Z,92.60
2018-12-07T18:48:34.630Z,92.80
2018-12-07T18:51:02.649Z,92.60
2018-12-07T18:53:30.643Z,92.70
2018-12-07T18:55:58.959Z,92.20
2018-12-07T18:58:26.799Z,91.50
2018-12-07T19:00:54.707Z,91.40
2018-12-07T19:03:22.513Z,91.20
2018-12-07T19:05:50.534Z,91.20
2018-12-07T19:08:18.286Z,91.10
2018-12-07T19:10:46.055Z,91.50
2018-12-07T19:13:13.972Z,91.30
2018-12-07T19:15:41.757Z,91.50
2018-12-07T19:18:09.675Z,91.60
2018-12-07T19:20:37.601Z,91.50
2018-12-07T19:23:05.625Z,91.70
2018-12-07T19:25:33.834Z,91.80
2018-12-07T19:28:01.805Z,91.80
2018-12-07T19:30:29.716Z,91.60
2018-12-07T19:32:57.525Z,91.80
2018-12-07T19:35:25.278Z,92.00
2018-12-07T19:37:53.340Z,92.20
2018-12-07T19:40:21.279Z,92.30
2018-12-07T19:42:48.954Z,92.10
2018-12-07T19:45:16.711Z,92.10
2018-12-07T19:47:44.579Z,92.10
2018-12-07T19:50:12.483Z,92.20
2018-12-07T19:52:40.367Z,92.30
2018-12-07T19:55:10.503Z,92.10
2018-12-07T19:57:38.929Z,92.30
2018-12-07T20:00:08.683Z,92.40
2018-12-07T20:02:36.769Z,92.40
2018-12-07T20:05:04.673Z,92.60
2018-12-07T20:07:32.575Z,92.70
2018-12-07T20:10:00.331Z,92.70
2018-12-07T20:12:28.187Z,92.60
2018-12-07T20:14:55.889Z,92.50
2018-12-07T20:17:23.632Z,92.20
2018-12-07T20:19:51.373Z,92.30
2018-12-07T20:22:19.301Z,92.60
2018-12-07T20:24:47.068Z,92.70
2018-12-07T20:27:16.470Z,93.00
2018-12-07T20:29:44.312Z,93.10
2018-12-07T20:32:12.427Z,93.20
2018-12-07T20:34:40.307Z,93.30
2018-12-07T20:37:08.300Z,93.10
2018-12-07T20:39:36.753Z,93.10
2018-12-07T20:42:04.489Z,93.80
2018-12-07T20:44:32.234Z,93.50
2018-12-07T20:47:00.171Z,93.90
2018-12-07T20:49:28.123Z,93.60
2018-12-07T20:51:55.845Z,93.90
2018-12-07T20:54:23.596Z,94.40
2018-12-07T20:56:51.378Z,94.40
2018-12-07T20:59:19.345Z,94.70
2018-12-07T21:01:51.832Z,94.80
2018-12-07T21:04:26.911Z,95.00
2018-12-07T21:11:21.312Z,95.00
2018-12-07T21:14:05.929Z,95.10
2018-12-07T21:17:42.008Z,95.70
2018-12-07T21:20:16.394Z,96.00
2018-12-07T21:22:44.475Z,95.80
2018-12-07T21:25:12.220Z,95.60
2018-12-07T21:27:39.853Z,95.60
2018-12-07T21:31:04.548Z,95.60
2018-12-07T21:34:18.943Z,95.50
2018-12-07T21:36:46.999Z,95.70
2018-12-07T21:39:58.478Z,95.80
2018-12-07T21:42:34.191Z,96.20
2018-12-07T21:45:02.369Z,95.60
2018-12-07T21:48:20.998Z,95.20
2018-12-07T21:51:54.819Z,95.10
2018-12-07T21:54:22.783Z,95.20
2018-12-07T21:56:50.568Z,95.00
2018-12-07T21:59:18.327Z,94.90
2018-12-07T22:01:46.143Z,94.50
2018-12-07T22:04:13.987Z,94.20
2018-12-07T22:06:41.937Z,94.00
2018-12-07T22:09:10.246Z,94.10
2018-12-07T22:11:37.949Z,93.50
2018-12-07T22:14:05.546Z,94.00
2018-12-07T22:16:33.197Z,93.90
2018-12-07T22:19:01.106Z,94.40
2018-12-07T22:21:28.981Z,94.50
2018-12-07T22:23:56.827Z,93.80
2018-12-07T22:26:25.376Z,93.50
2018-12-07T22:28:53.311Z,93.30
2018-12-07T22:31:21.125Z,93.60
2018-12-07T22:33:48.907Z,94.30
2018-12-07T22:36:16.807Z,93.10
2018-12-07T22:38:44.842Z,94.00
2018-12-07T22:41:12.750Z,91.90
2018-12-07T22:43:40.498Z,92.30
2018-12-07T22:46:08.299Z,91.30
2018-12-07T22:48:36.030Z,91.00
2018-12-07T22:51:03.584Z,90.90
2018-12-07T22:53:31.203Z,91.40
2018-12-07T22:55:58.816Z,91.20
2018-12-07T22:58:26.771Z,91.10
2018-12-07T23:00:54.422Z,90.90
2018-12-07T23:03:22.069Z,91.00
2018-12-07T23:05:49.712Z,90.90
2018-12-07T23:08:17.373Z,90.50
2018-12-07T23:10:45.045Z,90.20
2018-12-07T23:13:12.708Z,90.60
2018-12-07T23:15:40.344Z,90.30
2018-12-07T23:18:08.001Z,90.60
2018-12-07T23:20:35.621Z,90.80
2018-12-07T23:23:03.230Z,90.70
2018-12-07T23:25:30.905Z,91.00
2018-12-07T23:27:59.416Z,90.70
2018-12-07T23:30:27.023Z,90.50
2018-12-07T23:32:54.680Z,90.00
2018-12-07T23:35:22.311Z,90.60
2018-12-07T23:37:49.940Z,90.30
2018-12-07T23:40:17.579Z,90.20
2018-12-07T23:42:45.201Z,90.40
2018-12-07T23:45:12.799Z,90.70
2018-12-07T23:47:40.459Z,90.80
2018-12-07T23:50:08.097Z,90.90
2018-12-07T23:52:35.688Z,91.10
2018-12-07T23:55:03.450Z,91.50
2018-12-07T23:57:31.063Z,91.30
2018-12-07T23:59:58.689Z,91.50
